createdAt,value
2022-11-08T00:00:01.625Z,1004.37
2022-11-08T00:00:37.090Z,1004.39
2022-11-08T00:01:12.585Z,1004.40
2022-11-08T00:01:48.086Z,1004.40
2022-11-08T00:02:23.294Z,1004.41
2022-11-08T00:02:58.537Z,1004.42
2022-11-08T00:03:33.705Z,1004.40
2022-11-08T00:04:09.135Z,1004.39
2022-11-08T00:04:44.632Z,1004.39
2022-11-08T00:05:19.952Z,1004.43
2022-11-08T00:05:55.161Z,1004.42
2022-11-08T00:06:30.456Z,1004.44
2022-11-08T00:07:05.652Z,1004.45
2022-11-08T00:07:40.766Z,1004.50
2022-11-08T00:08:16.401Z,1004.44
2022-11-08T00:08:51.377Z,1004.47
2022-11-08T00:09:26.640Z,1004.47
2022-11-08T00:10:01.779Z,1004.43
2022-11-08T00:10:37.352Z,1004.45
2022-11-08T00:11:12.576Z,1004.42
2022-11-08T00:11:47.995Z,1004.41
2022-11-08T00:12:23.001Z,1004.37
2022-11-08T00:12:58.199Z,1004.37
2022-11-08T00:13:33.318Z,1004.39
2022-11-08T00:14:08.538Z,1004.36
2022-11-08T00:14:43.556Z,1004.38
2022-11-08T00:15:18.657Z,1004.36
2022-11-08T00:15:54.198Z,1004.36
2022-11-08T00:16:29.464Z,1004.34
2022-11-08T00:17:04.713Z,1004.40
2022-11-08T00:17:40.120Z,1004.38
2022-11-08T00:18:15.974Z,1004.40
2022-11-08T00:18:51.054Z,1004.43
2022-11-08T00:19:26.210Z,1004.37
2022-11-08T00:20:01.632Z,1004.37
2022-11-08T00:20:36.842Z,1004.39
2022-11-08T00:21:12.051Z,1004.34
2022-11-08T00:21:47.379Z,1004.37
2022-11-08T00:22:22.691Z,1004.36
2022-11-08T00:22:57.927Z,1004.32
2022-11-08T00:23:33.039Z,1004.34
2022-11-08T00:24:08.033Z,1004.39
2022-11-08T00:24:43.322Z,1004.38
2022-11-08T00:25:18.584Z,1004.34
2022-11-08T00:25:53.880Z,1004.34
2022-11-08T00:26:29.155Z,1004.37
2022-11-08T00:27:04.250Z,1004.31
2022-11-08T00:27:39.592Z,1004.33
2022-11-08T00:28:15.224Z,1004.33
2022-11-08T00:28:50.237Z,1004.34
2022-11-08T00:29:25.335Z,1004.38
2022-11-08T00:30:00.462Z,1004.34
2022-11-08T00:30:35.685Z,1004.34
2022-11-08T00:31:10.811Z,1004.32
2022-11-08T00:31:45.916Z,1004.35
2022-11-08T00:32:21.514Z,1004.35
2022-11-08T00:32:56.733Z,1004.37
2022-11-08T00:33:32.067Z,1004.32
2022-11-08T00:34:07.360Z,1004.30
2022-11-08T00:34:42.570Z,1004.31
2022-11-08T00:35:17.782Z,1004.31
2022-11-08T00:35:53.215Z,1004.28
2022-11-08T00:36:28.656Z,1004.30
2022-11-08T00:37:04.075Z,1004.35
2022-11-08T00:37:39.417Z,1004.32
2022-11-08T00:38:14.669Z,1004.36
2022-11-08T00:38:49.751Z,1004.37
2022-11-08T00:39:24.876Z,1004.36
2022-11-08T00:40:00.104Z,1004.33
2022-11-08T00:40:35.120Z,1004.34
2022-11-08T00:41:10.365Z,1004.31
2022-11-08T00:41:45.885Z,1004.36
2022-11-08T00:42:21.183Z,1004.38
2022-11-08T00:42:56.686Z,1004.33
2022-11-08T00:43:31.791Z,1004.31
2022-11-08T00:44:06.922Z,1004.33
2022-11-08T00:44:42.421Z,1004.30
2022-11-08T00:45:17.651Z,1004.34
2022-11-08T00:45:52.846Z,1004.36
2022-11-08T00:46:28.375Z,1004.34
2022-11-08T00:47:03.902Z,1004.33
2022-11-08T00:47:39.039Z,1004.33
2022-11-08T00:48:14.556Z,1004.35
2022-11-08T00:48:49.459Z,1004.35
2022-11-08T00:49:24.751Z,1004.29
2022-11-08T00:49:59.782Z,1004.30
2022-11-08T00:50:35.082Z,1004.29
2022-11-08T00:51:10.394Z,1004.27
2022-11-08T00:51:45.513Z,1004.28
2022-11-08T00:52:20.619Z,1004.28
2022-11-08T00:52:56.229Z,1004.25
2022-11-08T00:53:31.267Z,1004.26
2022-11-08T00:54:06.651Z,1004.26
2022-11-08T00:54:42.180Z,1004.22
2022-11-08T00:55:17.293Z,1004.21
2022-11-08T00:55:52.425Z,1004.23
2022-11-08T00:56:27.622Z,1004.23
2022-11-08T00:57:02.763Z,1004.27
2022-11-08T00:57:53.992Z,1004.24
2022-11-08T00:58:13.195Z,1004.28
2022-11-08T00:58:48.707Z,1004.26
2022-11-08T00:59:24.017Z,1004.23
2022-11-08T00:59:59.420Z,1004.22
2022-11-08T01:00:34.644Z,1004.24
2022-11-08T01:01:10.202Z,1004.27
2022-11-08T01:01:45.717Z,1004.25
2022-11-08T01:02:21.092Z,1004.23
2022-11-08T01:02:56.122Z,1004.26
2022-11-08T01:03:31.426Z,1004.22
2022-11-08T01:04:06.623Z,1004.25
2022-11-08T01:04:41.623Z,1004.24
2022-11-08T01:05:16.640Z,1004.22
2022-11-08T01:05:52.142Z,1004.20
2022-11-08T01:06:27.569Z,1004.21
2022-11-08T01:07:02.771Z,1004.20
2022-11-08T01:07:38.608Z,1004.20
2022-11-08T01:08:14.098Z,1004.21
2022-11-08T01:08:49.319Z,1004.20
2022-11-08T01:09:24.523Z,1004.18
2022-11-08T01:09:59.800Z,1004.18
2022-11-08T01:10:35.097Z,1004.18
2022-11-08T01:11:09.925Z,1004.15
2022-11-08T01:11:44.952Z,1004.15
2022-11-08T01:12:20.324Z,1004.10
2022-11-08T01:12:55.658Z,1004.14
2022-11-08T01:13:30.869Z,1004.17
2022-11-08T01:14:05.956Z,1004.15
2022-11-08T01:14:41.078Z,1004.18
2022-11-08T01:15:16.304Z,1004.16
2022-11-08T01:15:51.824Z,1004.14
2022-11-08T01:16:26.962Z,1004.13
2022-11-08T01:17:02.379Z,1004.12
2022-11-08T01:17:37.555Z,1004.17
2022-11-08T01:18:13.248Z,1004.14
2022-11-08T01:18:48.527Z,1004.16
2022-11-08T01:19:23.891Z,1004.09
2022-11-08T01:19:58.988Z,1004.16
2022-11-08T01:20:34.118Z,1004.20
2022-11-08T01:21:09.421Z,1004.17
2022-11-08T01:21:44.732Z,1004.14
2022-11-08T01:22:20.028Z,1004.16
2022-11-08T01:22:55.334Z,1004.14
2022-11-08T01:23:30.561Z,1004.16
2022-11-08T01:24:05.671Z,1004.15
2022-11-08T01:24:40.781Z,1004.12
2022-11-08T01:25:16.111Z,1004.12
2022-11-08T01:25:51.304Z,1004.16
2022-11-08T01:26:26.552Z,1004.19
2022-11-08T01:27:01.649Z,1004.15
2022-11-08T01:27:36.863Z,1004.17
2022-11-08T01:28:12.354Z,1004.11
2022-11-08T01:28:47.292Z,1004.12
2022-11-08T01:29:22.586Z,1004.14
2022-11-08T01:29:57.813Z,1004.16
2022-11-08T01:30:33.301Z,1004.19
2022-11-08T01:31:08.312Z,1004.12
2022-11-08T01:31:43.501Z,1004.18
2022-11-08T01:32:18.628Z,1004.12
2022-11-08T01:32:53.822Z,1004.10
2022-11-08T01:33:29.043Z,1004.11
2022-11-08T01:34:04.158Z,1004.12
2022-11-08T01:34:39.484Z,1004.10
2022-11-08T01:35:14.698Z,1004.08
2022-11-08T01:35:49.703Z,1004.10
2022-11-08T01:36:25.120Z,1004.09
2022-11-08T01:37:00.615Z,1004.07
2022-11-08T01:37:35.843Z,1004.06
2022-11-08T01:38:11.138Z,1004.06
2022-11-08T01:38:46.286Z,1004.08
2022-11-08T01:39:21.490Z,1004.05
2022-11-08T01:39:56.509Z,1004.07
2022-11-08T01:40:32.024Z,1004.10
2022-11-08T01:41:07.130Z,1004.13
2022-11-08T01:41:42.330Z,1004.06
2022-11-08T01:42:17.369Z,1004.02
2022-11-08T01:42:52.563Z,1004.05
2022-11-08T01:43:28.140Z,1004.05
2022-11-08T01:44:03.651Z,1004.02
2022-11-08T01:44:38.878Z,1004.01
2022-11-08T01:45:14.186Z,1004.08
2022-11-08T01:45:49.405Z,1004.03
2022-11-08T01:46:24.822Z,1004.01
2022-11-08T01:47:00.179Z,1004.03
2022-11-08T01:47:35.473Z,1004.01
2022-11-08T01:48:10.599Z,1004.00
2022-11-08T01:48:45.910Z,1004.01
2022-11-08T01:49:21.155Z,1003.99
2022-11-08T01:49:56.367Z,1004.01
2022-11-08T01:50:31.391Z,1003.97
2022-11-08T01:51:06.487Z,1003.99
2022-11-08T01:51:41.629Z,1003.96
2022-11-08T01:52:16.942Z,1003.96
2022-11-08T01:52:54.216Z,1003.96
2022-11-08T01:53:29.328Z,1003.91
2022-11-08T01:54:04.559Z,1003.93
2022-11-08T01:54:40.068Z,1003.94
2022-11-08T01:55:15.283Z,1003.95
2022-11-08T01:55:50.474Z,1003.94
2022-11-08T01:56:25.696Z,1003.95
2022-11-08T01:57:00.818Z,1003.92
2022-11-08T01:57:35.936Z,1003.95
2022-11-08T01:58:11.086Z,1003.93
2022-11-08T01:58:46.413Z,1003.92
2022-11-08T01:59:21.950Z,1003.90
2022-11-08T01:59:57.048Z,1003.91
2022-11-08T02:00:32.565Z,1003.93
2022-11-08T02:01:07.726Z,1003.94
2022-11-08T02:01:43.012Z,1003.94
2022-11-08T02:02:18.235Z,1003.96
2022-11-08T02:02:53.402Z,1003.91
2022-11-08T02:03:28.431Z,1003.93
2022-11-08T02:04:03.933Z,1003.92
2022-11-08T02:04:39.069Z,1003.89
2022-11-08T02:05:14.074Z,1003.91
2022-11-08T02:05:49.293Z,1003.88
2022-11-08T02:06:24.604Z,1003.91
2022-11-08T02:06:59.840Z,1003.89
2022-11-08T02:07:35.136Z,1003.87
2022-11-08T02:08:10.755Z,1003.85
2022-11-08T02:08:45.949Z,1003.87
2022-11-08T02:09:21.080Z,1003.87
2022-11-08T02:09:56.404Z,1003.82
2022-11-08T02:10:31.622Z,1003.86
2022-11-08T02:11:06.842Z,1003.84
2022-11-08T02:11:42.064Z,1003.81
2022-11-08T02:12:17.153Z,1003.91
2022-11-08T02:12:52.611Z,1003.82
2022-11-08T02:13:27.842Z,1003.82
2022-11-08T02:14:03.339Z,1003.83
2022-11-08T02:14:38.542Z,1003.86
2022-11-08T02:15:13.645Z,1003.89
2022-11-08T02:15:49.162Z,1003.87
2022-11-08T02:16:24.284Z,1003.86
2022-11-08T02:16:59.399Z,1003.87
2022-11-08T02:17:34.618Z,1003.85
2022-11-08T02:18:10.023Z,1003.85
2022-11-08T02:18:45.342Z,1003.88
2022-11-08T02:19:20.436Z,1003.84
2022-11-08T02:19:55.882Z,1003.83
2022-11-08T02:20:31.082Z,1003.84
2022-11-08T02:21:06.924Z,1003.86
2022-11-08T02:21:42.350Z,1003.84
2022-11-08T02:22:18.063Z,1003.82
2022-11-08T02:22:53.171Z,1003.79
2022-11-08T02:23:28.383Z,1003.82
2022-11-08T02:24:03.484Z,1003.82
2022-11-08T02:24:39.000Z,1003.79
2022-11-08T02:25:14.477Z,1003.77
2022-11-08T02:25:49.608Z,1003.80
2022-11-08T02:26:24.730Z,1003.82
2022-11-08T02:27:00.106Z,1003.77
2022-11-08T02:27:35.487Z,1003.79
2022-11-08T02:28:10.877Z,1003.80
2022-11-08T02:28:46.064Z,1003.73
2022-11-08T02:29:21.292Z,1003.71
2022-11-08T02:29:56.431Z,1003.81
2022-11-08T02:30:31.860Z,1003.76
2022-11-08T02:31:06.946Z,1003.78
2022-11-08T02:31:42.262Z,1003.71
2022-11-08T02:32:17.871Z,1003.71
2022-11-08T02:32:53.423Z,1003.73
2022-11-08T02:33:28.754Z,1003.66
2022-11-08T02:34:04.250Z,1003.68
2022-11-08T02:34:39.558Z,1003.74
2022-11-08T02:35:14.926Z,1003.67
2022-11-08T02:35:50.016Z,1003.65
2022-11-08T02:36:25.632Z,1003.65
2022-11-08T02:37:00.925Z,1003.68
2022-11-08T02:37:36.152Z,1003.72
2022-11-08T02:38:11.452Z,1003.66
2022-11-08T02:38:46.686Z,1003.71
2022-11-08T02:39:21.910Z,1003.66
2022-11-08T02:39:57.038Z,1003.63
2022-11-08T02:40:32.552Z,1003.63
2022-11-08T02:41:07.766Z,1003.63
2022-11-08T02:41:42.891Z,1003.61
2022-11-08T02:42:18.135Z,1003.65
2022-11-08T02:42:53.533Z,1003.67
2022-11-08T02:43:28.852Z,1003.62
2022-11-08T02:44:03.952Z,1003.56
2022-11-08T02:44:39.279Z,1003.65
2022-11-08T02:45:14.305Z,1003.60
2022-11-08T02:45:49.533Z,1003.60
2022-11-08T02:46:24.631Z,1003.58
2022-11-08T02:46:59.859Z,1003.61
2022-11-08T02:47:35.156Z,1003.58
2022-11-08T02:48:10.271Z,1003.55
2022-11-08T02:48:45.286Z,1003.55
2022-11-08T02:49:20.522Z,1003.58
2022-11-08T02:49:55.634Z,1003.55
2022-11-08T02:50:30.668Z,1003.54
2022-11-08T02:51:05.986Z,1003.59
2022-11-08T02:51:41.210Z,1003.57
2022-11-08T02:52:16.411Z,1003.55
2022-11-08T02:52:51.782Z,1003.54
2022-11-08T02:53:27.095Z,1003.52
2022-11-08T02:54:02.436Z,1003.52
2022-11-08T02:54:37.648Z,1003.52
2022-11-08T02:55:12.894Z,1003.53
2022-11-08T02:55:48.315Z,1003.46
2022-11-08T02:56:23.635Z,1003.54
2022-11-08T02:56:59.054Z,1003.49
2022-11-08T02:57:34.272Z,1003.49
2022-11-08T02:58:09.492Z,1003.50
2022-11-08T02:58:45.197Z,1003.51
2022-11-08T02:59:20.590Z,1003.50
2022-11-08T02:59:55.968Z,1003.45
2022-11-08T03:00:31.465Z,1003.47
2022-11-08T03:01:06.847Z,1003.46
2022-11-08T03:01:42.262Z,1003.46
2022-11-08T03:02:17.451Z,1003.50
2022-11-08T03:02:52.254Z,1003.50
2022-11-08T03:03:27.477Z,1003.44
2022-11-08T03:04:02.679Z,1003.47
2022-11-08T03:04:38.016Z,1003.45
2022-11-08T03:05:13.116Z,1003.47
2022-11-08T03:05:48.436Z,1003.46
2022-11-08T03:06:23.787Z,1003.43
2022-11-08T03:06:59.032Z,1003.41
2022-11-08T03:07:34.130Z,1003.40
2022-11-08T03:08:09.164Z,1003.37
2022-11-08T03:08:44.601Z,1003.40
2022-11-08T03:09:20.018Z,1003.38
2022-11-08T03:09:55.312Z,1003.35
2022-11-08T03:10:30.645Z,1003.38
2022-11-08T03:11:05.846Z,1003.40
2022-11-08T03:11:41.007Z,1003.37
2022-11-08T03:12:16.117Z,1003.35
2022-11-08T03:12:51.457Z,1003.37
2022-11-08T03:13:26.964Z,1003.40
2022-11-08T03:14:02.191Z,1003.39
2022-11-08T03:14:37.191Z,1003.36
2022-11-08T03:15:12.325Z,1003.33
2022-11-08T03:15:47.528Z,1003.33
2022-11-08T03:16:22.860Z,1003.36
2022-11-08T03:16:57.883Z,1003.32
2022-11-08T03:17:33.215Z,1003.31
2022-11-08T03:18:08.607Z,1003.30
2022-11-08T03:18:43.623Z,1003.29
2022-11-08T03:19:18.729Z,1003.37
2022-11-08T03:19:53.846Z,1003.29
2022-11-08T03:20:32.710Z,1003.32
2022-11-08T03:21:04.577Z,1003.23
2022-11-08T03:21:40.033Z,1003.31
2022-11-08T03:22:15.564Z,1003.27
2022-11-08T03:22:50.686Z,1003.28
2022-11-08T03:23:25.902Z,1003.26
2022-11-08T03:24:01.188Z,1003.29
2022-11-08T03:24:36.212Z,1003.29
2022-11-08T03:25:11.599Z,1003.23
2022-11-08T03:25:46.911Z,1003.28
2022-11-08T03:26:22.026Z,1003.20
2022-11-08T03:26:57.344Z,1003.23
2022-11-08T03:27:32.759Z,1003.16
2022-11-08T03:28:07.970Z,1003.17
2022-11-08T03:28:43.078Z,1003.17
2022-11-08T03:29:18.316Z,1003.19
2022-11-08T03:29:53.720Z,1003.19
2022-11-08T03:30:29.058Z,1003.17
2022-11-08T03:31:04.250Z,1003.16
2022-11-08T03:31:39.386Z,1003.12
2022-11-08T03:32:14.907Z,1003.12
2022-11-08T03:32:50.163Z,1003.11
2022-11-08T03:33:25.562Z,1003.08
2022-11-08T03:34:00.690Z,1003.07
2022-11-08T03:34:35.984Z,1003.15
2022-11-08T03:35:10.797Z,1003.12
2022-11-08T03:35:46.007Z,1003.13
2022-11-08T03:36:21.343Z,1003.09
2022-11-08T03:36:56.848Z,1003.15
2022-11-08T03:37:32.177Z,1003.10
2022-11-08T03:38:07.937Z,1003.11
2022-11-08T03:38:43.268Z,1003.11
2022-11-08T03:39:18.389Z,1003.09
2022-11-08T03:39:54.019Z,1003.14
2022-11-08T03:40:29.409Z,1003.13
2022-11-08T03:41:04.635Z,1003.09
2022-11-08T03:41:39.952Z,1003.11
2022-11-08T03:42:15.182Z,1003.08
2022-11-08T03:42:50.276Z,1003.09
2022-11-08T03:43:25.427Z,1003.10
2022-11-08T03:44:00.622Z,1003.05
2022-11-08T03:44:35.776Z,1003.06
2022-11-08T03:45:11.005Z,1003.08
2022-11-08T03:45:46.437Z,1003.07
2022-11-08T03:46:22.032Z,1003.03
2022-11-08T03:46:57.339Z,1003.06
2022-11-08T03:47:32.529Z,1003.05
2022-11-08T03:48:07.946Z,1003.05
2022-11-08T03:48:43.072Z,1003.06
2022-11-08T03:49:18.716Z,1003.02
2022-11-08T03:49:53.904Z,1003.02
2022-11-08T03:50:29.132Z,1003.00
2022-11-08T03:51:04.220Z,1002.99
2022-11-08T03:51:39.666Z,1003.01
2022-11-08T03:52:15.068Z,1002.97
2022-11-08T03:52:50.310Z,1002.97
2022-11-08T03:53:25.715Z,1002.96
2022-11-08T03:54:00.867Z,1002.95
2022-11-08T03:54:35.862Z,1002.95
2022-11-08T03:55:11.205Z,1002.94
2022-11-08T03:55:46.934Z,1002.96
2022-11-08T03:56:22.030Z,1002.92
2022-11-08T03:56:57.332Z,1002.95
2022-11-08T03:57:32.556Z,1002.97
2022-11-08T03:58:07.864Z,1002.96
2022-11-08T03:58:43.091Z,1002.94
2022-11-08T03:59:18.404Z,1002.93
2022-11-08T03:59:53.300Z,1002.90
2022-11-08T04:00:28.593Z,1002.95
2022-11-08T04:01:03.977Z,1002.95
2022-11-08T04:01:39.527Z,1002.93
2022-11-08T04:02:14.594Z,1002.92
2022-11-08T04:02:49.945Z,1002.91
2022-11-08T04:03:25.454Z,1002.93
2022-11-08T04:04:00.477Z,1002.91
2022-11-08T04:04:35.591Z,1002.90
2022-11-08T04:05:11.333Z,1002.90
2022-11-08T04:05:46.643Z,1002.89
2022-11-08T04:06:21.967Z,1002.92
2022-11-08T04:06:57.269Z,1002.93
2022-11-08T04:07:32.380Z,1002.90
2022-11-08T04:08:07.480Z,1002.92
2022-11-08T04:08:42.839Z,1002.92
2022-11-08T04:09:21.298Z,1002.93
2022-11-08T04:09:53.203Z,1002.89
2022-11-08T04:10:28.494Z,1002.90
2022-11-08T04:11:03.938Z,1002.90
2022-11-08T04:11:39.129Z,1002.93
2022-11-08T04:12:14.560Z,1002.90
2022-11-08T04:12:49.955Z,1002.92
2022-11-08T04:13:25.276Z,1002.94
2022-11-08T04:14:00.785Z,1002.95
2022-11-08T04:14:36.096Z,1002.87
2022-11-08T04:15:11.312Z,1002.88
2022-11-08T04:15:46.435Z,1002.85
2022-11-08T04:16:21.691Z,1002.84
2022-11-08T04:16:56.793Z,1002.80
2022-11-08T04:17:32.197Z,1002.85
2022-11-08T04:18:07.401Z,1002.79
2022-11-08T04:18:42.520Z,1002.81
2022-11-08T04:19:17.844Z,1002.78
2022-11-08T04:19:53.260Z,1002.79
2022-11-08T04:20:28.711Z,1002.80
2022-11-08T04:21:03.810Z,1002.77
2022-11-08T04:21:39.345Z,1002.80
2022-11-08T04:22:14.651Z,1002.79
2022-11-08T04:22:50.282Z,1002.83
2022-11-08T04:23:25.387Z,1002.84
2022-11-08T04:24:00.409Z,1002.85
2022-11-08T04:24:35.612Z,1002.84
2022-11-08T04:25:10.748Z,1002.79
2022-11-08T04:25:45.986Z,1002.80
2022-11-08T04:26:21.426Z,1002.81
2022-11-08T04:26:56.917Z,1002.81
2022-11-08T04:27:32.542Z,1002.83
2022-11-08T04:28:07.742Z,1002.78
2022-11-08T04:28:42.960Z,1002.79
2022-11-08T04:29:18.177Z,1002.78
2022-11-08T04:29:53.799Z,1002.83
2022-11-08T04:30:29.018Z,1002.79
2022-11-08T04:31:04.462Z,1002.74
2022-11-08T04:31:39.572Z,1002.78
2022-11-08T04:32:14.927Z,1002.75
2022-11-08T04:32:50.108Z,1002.73
2022-11-08T04:33:25.443Z,1002.72
2022-11-08T04:34:00.652Z,1002.72
2022-11-08T04:34:35.976Z,1002.71
2022-11-08T04:35:11.093Z,1002.71
2022-11-08T04:35:46.903Z,1002.72
2022-11-08T04:36:22.631Z,1002.71
2022-11-08T04:36:57.577Z,1002.67
2022-11-08T04:37:32.774Z,1002.66
2022-11-08T04:38:08.111Z,1002.67
2022-11-08T04:38:43.325Z,1002.70
2022-11-08T04:39:18.646Z,1002.64
2022-11-08T04:39:53.650Z,1002.70
2022-11-08T04:40:29.192Z,1002.73
2022-11-08T04:41:04.397Z,1002.65
2022-11-08T04:41:39.824Z,1002.68
2022-11-08T04:42:15.029Z,1002.67
2022-11-08T04:42:50.263Z,1002.72
2022-11-08T04:43:25.555Z,1002.72
2022-11-08T04:44:00.988Z,1002.72
2022-11-08T04:44:36.189Z,1002.71
2022-11-08T04:45:11.505Z,1002.73
2022-11-08T04:45:46.624Z,1002.71
2022-11-08T04:46:21.762Z,1002.67
2022-11-08T04:46:57.481Z,1002.68
2022-11-08T04:47:38.848Z,1002.67
2022-11-08T04:48:08.199Z,1002.63
2022-11-08T04:48:43.318Z,1002.65
2022-11-08T04:49:18.536Z,1002.67
2022-11-08T04:49:53.677Z,1002.67
2022-11-08T04:50:28.885Z,1002.66
2022-11-08T04:51:04.323Z,1002.66
2022-11-08T04:51:39.822Z,1002.68
2022-11-08T04:52:15.005Z,1002.62
2022-11-08T04:52:50.187Z,1002.60
2022-11-08T04:53:25.209Z,1002.65
2022-11-08T04:54:01.014Z,1002.61
2022-11-08T04:54:36.331Z,1002.62
2022-11-08T04:55:11.620Z,1002.60
2022-11-08T04:55:47.050Z,1002.57
2022-11-08T04:56:22.265Z,1002.57
2022-11-08T04:56:57.698Z,1002.57
2022-11-08T04:57:33.312Z,1002.56
2022-11-08T04:58:08.525Z,1002.49
2022-11-08T04:58:43.712Z,1002.53
2022-11-08T04:59:19.022Z,1002.48
2022-11-08T04:59:54.407Z,1002.54
2022-11-08T05:00:29.743Z,1002.47
2022-11-08T05:01:05.043Z,1002.46
2022-11-08T05:01:40.376Z,1002.53
2022-11-08T05:02:15.401Z,1002.47
2022-11-08T05:02:50.863Z,1002.48
2022-11-08T05:03:25.905Z,1002.49
2022-11-08T05:04:00.934Z,1002.46
2022-11-08T05:04:36.136Z,1002.47
2022-11-08T05:05:11.661Z,1002.52
2022-11-08T05:05:46.952Z,1002.39
2022-11-08T05:06:22.064Z,1002.41
2022-11-08T05:06:57.488Z,1002.37
2022-11-08T05:07:32.604Z,1002.43
2022-11-08T05:08:07.729Z,1002.40
2022-11-08T05:08:43.142Z,1002.36
2022-11-08T05:09:18.674Z,1002.34
2022-11-08T05:09:53.780Z,1002.31
2022-11-08T05:10:28.980Z,1002.28
2022-11-08T05:11:04.099Z,1002.26
2022-11-08T05:11:39.398Z,1002.32
2022-11-08T05:12:14.638Z,1002.30
2022-11-08T05:12:49.653Z,1002.30
2022-11-08T05:13:24.809Z,1002.29
2022-11-08T05:14:00.003Z,1002.27
2022-11-08T05:14:35.226Z,1002.33
2022-11-08T05:15:10.325Z,1002.33
2022-11-08T05:15:45.542Z,1002.33
2022-11-08T05:16:20.554Z,1002.33
2022-11-08T05:16:55.781Z,1002.33
2022-11-08T05:17:31.082Z,1002.33
2022-11-08T05:18:06.398Z,1002.31
2022-11-08T05:18:42.203Z,1002.33
2022-11-08T05:19:17.029Z,1002.30
2022-11-08T05:19:52.236Z,1002.29
2022-11-08T05:20:27.352Z,1002.30
2022-11-08T05:21:02.881Z,1002.28
2022-11-08T05:21:38.092Z,1002.25
2022-11-08T05:22:13.395Z,1002.36
2022-11-08T05:22:48.818Z,1002.26
2022-11-08T05:23:24.026Z,1002.25
2022-11-08T05:23:59.378Z,1002.26
2022-11-08T05:24:34.478Z,1002.22
2022-11-08T05:25:09.797Z,1002.21
2022-11-08T05:25:44.716Z,1002.20
2022-11-08T05:26:20.036Z,1002.21
2022-11-08T05:26:55.251Z,1002.19
2022-11-08T05:27:30.684Z,1002.21
2022-11-08T05:28:06.082Z,1002.18
2022-11-08T05:28:41.395Z,1002.16
2022-11-08T05:29:16.571Z,1002.17
2022-11-08T05:29:52.503Z,1002.09
2022-11-08T05:30:27.399Z,1002.10
2022-11-08T05:31:02.818Z,1002.12
2022-11-08T05:31:37.917Z,1002.14
2022-11-08T05:32:13.166Z,1002.11
2022-11-08T05:32:48.154Z,1002.11
2022-11-08T05:33:23.619Z,1002.09
2022-11-08T05:33:59.023Z,1002.10
2022-11-08T05:34:35.037Z,1002.07
2022-11-08T05:35:10.147Z,1002.05
2022-11-08T05:35:45.658Z,1002.03
2022-11-08T05:36:21.059Z,1002.05
2022-11-08T05:36:56.408Z,1002.06
2022-11-08T05:37:31.618Z,1002.02
2022-11-08T05:38:06.968Z,1002.00
2022-11-08T05:38:42.179Z,1002.03
2022-11-08T05:39:17.512Z,1001.96
2022-11-08T05:39:52.745Z,1002.01
2022-11-08T05:40:33.038Z,1001.98
2022-11-08T05:41:03.490Z,1001.99
2022-11-08T05:41:38.801Z,1001.91
2022-11-08T05:42:14.401Z,1001.98
2022-11-08T05:42:49.608Z,1001.94
2022-11-08T05:43:24.831Z,1001.94
2022-11-08T05:44:00.148Z,1001.92
2022-11-08T05:44:35.460Z,1001.90
2022-11-08T05:45:10.568Z,1001.91
2022-11-08T05:45:45.760Z,1001.88
2022-11-08T05:46:21.235Z,1001.86
2022-11-08T05:46:56.249Z,1001.80
2022-11-08T05:47:31.647Z,1001.80
2022-11-08T05:48:06.677Z,1001.85
2022-11-08T05:48:41.875Z,1001.82
2022-11-08T05:49:17.410Z,1001.77
2022-11-08T05:49:52.705Z,1001.74
2022-11-08T05:50:27.915Z,1001.81
2022-11-08T05:51:03.144Z,1001.79
2022-11-08T05:51:38.252Z,1001.78
2022-11-08T05:52:13.475Z,1001.71
2022-11-08T05:52:48.681Z,1001.76
2022-11-08T05:53:23.899Z,1001.70
2022-11-08T05:53:58.954Z,1001.72
2022-11-08T05:54:34.243Z,1001.69
2022-11-08T05:55:09.370Z,1001.73
2022-11-08T05:55:44.767Z,1001.70
2022-11-08T05:56:20.104Z,1001.68
2022-11-08T05:56:55.401Z,1001.70
2022-11-08T05:57:30.614Z,1001.69
2022-11-08T05:58:05.542Z,1001.68
2022-11-08T05:58:40.865Z,1001.68
2022-11-08T05:59:16.193Z,1001.68
2022-11-08T05:59:51.240Z,1001.68
2022-11-08T06:00:26.341Z,1001.69
2022-11-08T06:01:01.674Z,1001.67
2022-11-08T06:01:37.052Z,1001.66
2022-11-08T06:02:12.466Z,1001.68
2022-11-08T06:02:47.568Z,1001.65
2022-11-08T06:03:24.077Z,1001.66
2022-11-08T06:03:58.229Z,1001.60
2022-11-08T06:04:33.556Z,1001.64
2022-11-08T06:05:08.786Z,1001.62
2022-11-08T06:05:44.612Z,1001.68
2022-11-08T06:06:19.887Z,1001.64
2022-11-08T06:06:55.027Z,1001.64
2022-11-08T06:07:30.225Z,1001.63
2022-11-08T06:08:05.471Z,1001.67
2022-11-08T06:08:40.765Z,1001.65
2022-11-08T06:09:16.017Z,1001.65
2022-11-08T06:09:51.288Z,1001.63
2022-11-08T06:10:26.566Z,1001.63
2022-11-08T06:11:01.809Z,1001.71
2022-11-08T06:11:37.276Z,1001.64
2022-11-08T06:12:12.386Z,1001.68
2022-11-08T06:12:47.640Z,1001.68
2022-11-08T06:13:22.747Z,1001.65
2022-11-08T06:13:58.185Z,1001.63
2022-11-08T06:14:33.387Z,1001.68
2022-11-08T06:15:08.895Z,1001.68
2022-11-08T06:15:44.122Z,1001.62
2022-11-08T06:16:19.346Z,1001.65
2022-11-08T06:16:55.021Z,1001.62
2022-11-08T06:17:30.466Z,1001.67
2022-11-08T06:18:05.157Z,1001.66
2022-11-08T06:18:40.401Z,1001.66
2022-11-08T06:19:15.806Z,1001.61
2022-11-08T06:19:51.351Z,1001.67
2022-11-08T06:20:26.854Z,1001.63
2022-11-08T06:21:01.990Z,1001.60
2022-11-08T06:21:37.294Z,1001.56
2022-11-08T06:22:12.709Z,1001.57
2022-11-08T06:22:48.212Z,1001.55
2022-11-08T06:23:24.836Z,1001.56
2022-11-08T06:24:00.247Z,1001.53
2022-11-08T06:24:35.480Z,1001.53
2022-11-08T06:25:10.492Z,1001.49
2022-11-08T06:25:47.644Z,1001.55
2022-11-08T06:26:20.968Z,1001.55
2022-11-08T06:26:56.301Z,1001.51
2022-11-08T06:27:31.675Z,1001.43
2022-11-08T06:28:07.133Z,1001.41
2022-11-08T06:28:42.791Z,1001.39
2022-11-08T06:29:17.919Z,1001.39
2022-11-08T06:29:53.218Z,1001.41
2022-11-08T06:30:28.337Z,1001.34
2022-11-08T06:31:03.748Z,1001.31
2022-11-08T06:31:42.892Z,1001.29
2022-11-08T06:32:14.493Z,1001.28
2022-11-08T06:32:49.911Z,1001.32
2022-11-08T06:33:25.116Z,1001.30
2022-11-08T06:34:00.539Z,1001.24
2022-11-08T06:34:35.747Z,1001.26
2022-11-08T06:35:10.977Z,1001.25
2022-11-08T06:35:46.276Z,1001.34
2022-11-08T06:36:21.704Z,1001.31
2022-11-08T06:36:56.828Z,1001.24
2022-11-08T06:37:32.148Z,1001.32
2022-11-08T06:38:09.423Z,1001.31
2022-11-08T06:38:42.824Z,1001.26
2022-11-08T06:39:18.123Z,1001.26
2022-11-08T06:39:53.533Z,1001.25
2022-11-08T06:40:28.632Z,1001.23
2022-11-08T06:41:04.046Z,1001.23
2022-11-08T06:41:39.197Z,1001.17
2022-11-08T06:42:14.575Z,1001.22
2022-11-08T06:42:50.076Z,1001.23
2022-11-08T06:43:25.886Z,1001.23
2022-11-08T06:44:00.499Z,1001.27
2022-11-08T06:44:35.524Z,1001.23
2022-11-08T06:45:10.827Z,1001.23
2022-11-08T06:45:46.055Z,1001.26
2022-11-08T06:46:21.467Z,1001.25
2022-11-08T06:46:56.987Z,1001.23
2022-11-08T06:47:32.114Z,1001.16
2022-11-08T06:48:07.533Z,1001.16
2022-11-08T06:48:42.835Z,1001.16
2022-11-08T06:49:17.761Z,1001.27
2022-11-08T06:49:53.292Z,1001.12
2022-11-08T06:50:28.694Z,1001.20
2022-11-08T06:51:03.816Z,1001.16
2022-11-08T06:51:39.016Z,1001.10
2022-11-08T06:52:14.017Z,1001.19
2022-11-08T06:52:49.551Z,1001.15
2022-11-08T06:53:25.055Z,1001.09
2022-11-08T06:54:00.476Z,1001.09
2022-11-08T06:54:35.867Z,1001.08
2022-11-08T06:55:11.483Z,1001.09
2022-11-08T06:55:46.493Z,1001.10
2022-11-08T06:56:21.928Z,1001.09
2022-11-08T06:56:57.022Z,1001.12
2022-11-08T06:57:32.158Z,1001.17
2022-11-08T06:58:07.277Z,1001.19
2022-11-08T06:58:42.519Z,1001.26
2022-11-08T06:59:17.612Z,1001.25
2022-11-08T06:59:52.736Z,1001.19
2022-11-08T07:00:27.961Z,1001.24
2022-11-08T07:01:02.970Z,1001.09
2022-11-08T07:01:42.029Z,1001.19
2022-11-08T07:02:13.582Z,1001.10
2022-11-08T07:02:48.686Z,1001.07
2022-11-08T07:03:23.648Z,1001.03
2022-11-08T07:03:58.942Z,1001.01
2022-11-08T07:04:34.171Z,1000.98
2022-11-08T07:05:09.571Z,1001.00
2022-11-08T07:05:44.790Z,1001.02
2022-11-08T07:06:20.005Z,1000.97